createdAt,value
2024-05-09T00:00:39.835Z,10.06
2024-05-09T00:01:37.046Z,10.04
2024-05-09T00:02:37.075Z,10.01
2024-05-09T00:03:36.972Z,9.99
2024-05-09T00:04:37.319Z,9.97
2024-05-09T00:05:37.469Z,9.96
2024-05-09T00:06:36.898Z,9.93
2024-05-09T00:07:37.000Z,9.94
2024-05-09T00:08:36.972Z,9.93
2024-05-09T00:09:36.870Z,9.91
2024-05-09T00:10:38.855Z,9.88
2024-05-09T00:11:37.372Z,9.85
2024-05-09T00:12:36.861Z,9.82
2024-05-09T00:13:36.809Z,9.81
2024-05-09T00:14:36.836Z,9.79
2024-05-09T00:15:37.187Z,9.81
2024-05-09T00:16:36.784Z,9.78
2024-05-09T00:17:37.007Z,9.75
2024-05-09T00:18:36.903Z,9.73
2024-05-09T00:19:36.765Z,9.71
2024-05-09T00:20:40.048Z,9.71
2024-05-09T00:21:36.718Z,9.68
2024-05-09T00:22:36.740Z,9.70
2024-05-09T00:23:37.252Z,9.66
2024-05-09T00:24:36.733Z,9.67
2024-05-09T00:25:36.691Z,9.66
2024-05-09T00:26:36.732Z,9.63
2024-05-09T00:27:36.852Z,9.60
2024-05-09T00:28:36.711Z,9.58
2024-05-09T00:29:37.366Z,9.57
2024-05-09T00:30:37.481Z,9.56
2024-05-09T00:31:37.602Z,9.53
2024-05-09T00:32:36.854Z,9.52
2024-05-09T00:33:36.724Z,9.52
2024-05-09T00:34:36.571Z,9.49
2024-05-09T00:35:36.684Z,9.49
2024-05-09T00:36:36.585Z,9.49
2024-05-09T00:37:36.605Z,9.50
2024-05-09T00:38:36.591Z,9.48
2024-05-09T00:39:36.528Z,9.48
2024-05-09T00:40:40.529Z,9.48
2024-05-09T00:41:37.554Z,9.46
2024-05-09T00:42:36.493Z,9.45
2024-05-09T00:43:36.482Z,9.46
2024-05-09T00:44:36.603Z,9.45
2024-05-09T00:45:36.474Z,9.43
2024-05-09T00:46:36.438Z,9.40
2024-05-09T00:47:36.575Z,9.39
2024-05-09T00:48:36.549Z,9.39
2024-05-09T00:49:36.441Z,9.38
2024-05-09T00:50:37.764Z,9.35
2024-05-09T00:51:36.499Z,9.31
2024-05-09T00:52:36.455Z,9.30
2024-05-09T00:53:36.561Z,9.28
2024-05-09T00:54:36.344Z,9.27
2024-05-09T00:55:36.355Z,9.25
2024-05-09T00:56:36.455Z,9.25
2024-05-09T00:57:36.322Z,9.24
2024-05-09T00:58:36.309Z,9.25
2024-05-09T00:59:36.388Z,9.24
2024-05-09T01:00:39.921Z,9.23
2024-05-09T01:01:36.481Z,9.23
2024-05-09T01:02:36.430Z,9.21
2024-05-09T01:03:36.550Z,9.20
2024-05-09T01:06:21.072Z,9.21
2024-05-09T01:07:18.605Z,9.23
2024-05-09T01:08:18.689Z,9.21
2024-05-09T01:09:18.565Z,9.23
2024-05-09T01:12:08.109Z,9.24
2024-05-09T01:13:07.913Z,9.23
2024-05-09T01:14:06.192Z,9.21
2024-05-09T01:15:05.934Z,9.20
2024-05-09T01:16:05.913Z,9.18
2024-05-09T01:17:06.031Z,9.18
2024-05-09T01:18:06.027Z,9.16
2024-05-09T01:19:05.901Z,9.13
2024-05-09T01:20:08.187Z,9.12
2024-05-09T01:21:05.928Z,9.09
2024-05-09T01:22:05.850Z,9.06
2024-05-09T01:23:05.866Z,9.05
2024-05-09T01:24:05.987Z,9.04
2024-05-09T01:25:05.803Z,8.99
2024-05-09T01:26:05.867Z,8.96
2024-05-09T01:27:06.158Z,8.94
2024-05-09T01:28:07.789Z,8.94
2024-05-09T01:29:06.193Z,8.93
2024-05-09T01:30:09.523Z,8.91
2024-05-09T01:31:06.745Z,8.91
2024-05-09T01:32:05.847Z,8.90
2024-05-09T01:33:08.275Z,8.88
2024-05-09T01:34:06.136Z,8.87
2024-05-09T01:35:06.199Z,8.90
2024-05-09T01:36:06.218Z,8.88
2024-05-09T01:37:05.828Z,8.87
2024-05-09T01:38:06.333Z,8.87
2024-05-09T01:39:06.616Z,8.87
2024-05-09T01:40:09.699Z,8.86
2024-05-09T01:41:06.671Z,8.86
2024-05-09T01:42:06.236Z,8.86
2024-05-09T01:43:05.958Z,8.83
2024-05-09T01:44:05.784Z,8.83
2024-05-09T01:45:05.721Z,8.83
2024-05-09T01:46:06.207Z,8.81
2024-05-09T01:47:06.266Z,8.81
2024-05-09T01:48:06.688Z,8.78
2024-05-09T01:49:05.702Z,8.78
2024-05-09T01:50:09.064Z,8.78
2024-05-09T01:51:05.577Z,8.73
2024-05-09T01:52:06.214Z,8.71
2024-05-09T01:53:06.057Z,8.68
2024-05-09T01:54:05.637Z,8.65
2024-05-09T01:55:06.649Z,8.66
2024-05-09T01:56:05.505Z,8.63
2024-05-09T01:57:05.556Z,8.66
2024-05-09T01:58:05.512Z,8.65
2024-05-09T01:59:05.475Z,8.65
2024-05-09T02:00:07.639Z,8.63
2024-05-09T02:01:07.399Z,8.62
2024-05-09T02:02:05.616Z,8.60
2024-05-09T02:03:05.632Z,8.62
2024-05-09T02:04:06.862Z,8.60
2024-05-09T02:05:05.776Z,8.57
2024-05-09T02:06:05.673Z,8.55
2024-05-09T02:07:07.320Z,8.54
2024-05-09T02:08:07.389Z,8.53
2024-05-09T02:09:05.364Z,8.53
2024-05-09T02:10:13.770Z,8.51
2024-05-09T02:11:08.299Z,8.50
2024-05-09T02:12:05.446Z,8.48
2024-05-09T02:13:06.086Z,8.48
2024-05-09T02:14:07.298Z,8.48
2024-05-09T02:15:07.221Z,8.48
2024-05-09T02:16:05.329Z,8.48
2024-05-09T02:17:07.285Z,8.48
2024-05-09T02:18:05.557Z,8.48
2024-05-09T02:19:05.544Z,8.48
2024-05-09T02:20:10.759Z,8.47
2024-05-09T02:21:06.630Z,8.47
2024-05-09T02:22:07.118Z,8.45
2024-05-09T02:23:07.469Z,8.44
2024-05-09T02:24:05.944Z,8.42
2024-05-09T02:25:07.148Z,8.45
2024-05-09T02:26:07.112Z,8.44
2024-05-09T02:27:07.113Z,8.42
2024-05-09T02:28:05.370Z,8.40
2024-05-09T02:29:07.132Z,8.39
2024-05-09T02:30:15.165Z,8.39
2024-05-09T02:31:08.068Z,8.39
2024-05-09T02:32:05.544Z,8.37
2024-05-09T02:33:05.698Z,8.36
2024-05-09T02:34:07.075Z,8.35
2024-05-09T02:35:05.449Z,8.32
2024-05-09T02:36:05.381Z,8.32
2024-05-09T02:37:05.348Z,8.29
2024-05-09T02:38:05.410Z,8.28
2024-05-09T02:39:06.943Z,8.25
2024-05-09T02:40:05.799Z,8.25
2024-05-09T02:41:04.990Z,8.21
2024-05-09T02:42:05.176Z,8.21
2024-05-09T02:43:05.276Z,8.20
2024-05-09T02:44:04.984Z,8.18
2024-05-09T02:45:04.953Z,8.20
2024-05-09T02:46:05.375Z,8.21
2024-05-09T02:47:04.986Z,8.18
2024-05-09T02:48:05.142Z,8.18
2024-05-09T02:49:05.095Z,8.17
2024-05-09T02:50:06.196Z,8.12
2024-05-09T02:51:05.345Z,8.11
2024-05-09T02:52:04.959Z,8.08
2024-05-09T02:53:05.537Z,8.07
2024-05-09T02:54:04.987Z,8.04
2024-05-09T02:55:04.890Z,8.00
2024-05-09T02:56:05.398Z,8.00
2024-05-09T02:57:04.802Z,8.02
2024-05-09T02:58:04.824Z,8.02
2024-05-09T02:59:04.881Z,8.02
2024-05-09T03:00:07.666Z,7.99
2024-05-09T03:01:04.818Z,7.96
2024-05-09T03:02:05.199Z,7.94
2024-05-09T03:03:04.972Z,7.96
2024-05-09T03:04:05.261Z,7.94
2024-05-09T03:05:05.345Z,7.96
2024-05-09T03:06:05.336Z,7.97
2024-05-09T03:07:05.336Z,7.99
2024-05-09T03:08:04.878Z,7.97
2024-05-09T03:09:04.674Z,7.97
2024-05-09T03:10:07.479Z,7.97
2024-05-09T03:11:06.277Z,7.96
2024-05-09T03:12:04.819Z,7.97
2024-05-09T03:13:04.658Z,7.96
2024-05-09T03:14:04.670Z,7.96
2024-05-09T03:15:04.610Z,7.94
2024-05-09T03:16:04.586Z,7.93
2024-05-09T03:17:04.614Z,7.90
2024-05-09T03:18:04.905Z,7.87
2024-05-09T03:19:04.883Z,7.84
2024-05-09T03:20:06.976Z,7.78
2024-05-09T03:21:06.278Z,7.75
2024-05-09T03:22:04.645Z,7.66
2024-05-09T03:23:05.487Z,7.49
2024-05-09T03:24:04.480Z,7.45
2024-05-09T03:25:04.720Z,7.42
2024-05-09T03:26:04.760Z,7.47
2024-05-09T03:27:04.665Z,7.47
2024-05-09T03:28:04.706Z,7.42
2024-05-09T03:29:04.446Z,7.45
2024-05-09T03:30:07.304Z,7.52
2024-05-09T03:31:04.417Z,7.52
2024-05-09T03:32:04.517Z,7.55
2024-05-09T03:33:04.532Z,7.58
2024-05-09T03:34:04.780Z,7.60
2024-05-09T03:35:04.383Z,7.63
2024-05-09T03:36:06.161Z,7.66
2024-05-09T03:37:04.350Z,7.66
2024-05-09T03:38:04.423Z,7.67
2024-05-09T03:39:04.317Z,7.67
2024-05-09T03:40:07.344Z,7.69
2024-05-09T03:41:05.347Z,7.71
2024-05-09T03:42:04.285Z,7.71
2024-05-09T03:43:04.256Z,7.72
2024-05-09T03:44:04.292Z,7.72
2024-05-09T03:45:04.266Z,7.74
2024-05-09T03:46:04.252Z,7.75
2024-05-09T03:47:04.364Z,7.77
2024-05-09T03:48:04.372Z,7.77
2024-05-09T03:49:04.369Z,7.78
2024-05-09T03:50:05.602Z,7.79
2024-05-09T03:51:04.307Z,7.81
2024-05-09T03:52:04.195Z,7.84
2024-05-09T03:53:04.334Z,7.87
2024-05-09T03:54:04.166Z,7.90
2024-05-09T03:55:04.181Z,7.92
2024-05-09T03:56:04.215Z,8.07
2024-05-09T03:57:04.123Z,8.29
2024-05-09T03:58:04.109Z,8.57
2024-05-09T03:59:04.199Z,8.91
2024-05-09T04:00:05.732Z,9.27
2024-05-09T04:01:04.158Z,9.66
2024-05-09T04:02:04.220Z,10.00
2024-05-09T04:03:04.656Z,10.34
2024-05-09T04:04:04.084Z,10.65
2024-05-09T04:05:04.136Z,10.94
2024-05-09T04:06:04.043Z,11.24
2024-05-09T04:07:04.016Z,11.43
2024-05-09T04:08:04.052Z,11.57
2024-05-09T04:09:03.977Z,11.86
2024-05-09T04:10:05.274Z,12.08
2024-05-09T04:11:04.142Z,12.31
2024-05-09T04:12:04.171Z,12.56
2024-05-09T04:13:04.402Z,12.82
2024-05-09T04:14:04.003Z,13.11
2024-05-09T04:15:03.912Z,13.37
2024-05-09T04:16:03.926Z,13.56
2024-05-09T04:17:03.946Z,13.69
2024-05-09T04:18:04.177Z,13.89
2024-05-09T04:19:03.965Z,14.10
2024-05-09T04:20:05.129Z,14.28
2024-05-09T04:21:04.012Z,14.52
2024-05-09T04:22:03.817Z,14.67
2024-05-09T04:23:03.896Z,14.84
2024-05-09T04:24:03.825Z,15.09
2024-05-09T04:25:03.816Z,15.27
2024-05-09T04:26:03.846Z,15.42
2024-05-09T04:27:03.777Z,15.61
2024-05-09T04:28:03.794Z,15.67
2024-05-09T04:29:03.771Z,15.84
2024-05-09T04:30:06.124Z,16.00
2024-05-09T04:31:03.722Z,16.11
2024-05-09T04:32:03.831Z,16.20
2024-05-09T04:33:03.828Z,16.30
2024-05-09T04:34:04.097Z,16.44
2024-05-09T04:35:03.816Z,16.49
2024-05-09T04:36:03.665Z,16.41
2024-05-09T04:37:03.687Z,16.44
2024-05-09T04:38:03.792Z,16.48
2024-05-09T04:39:03.661Z,16.56
2024-05-09T04:40:05.425Z,16.50
2024-05-09T04:41:03.638Z,16.38
2024-05-09T04:42:03.609Z,16.34
2024-05-09T04:43:03.619Z,16.27
2024-05-09T04:44:03.664Z,16.06
2024-05-09T04:45:03.600Z,15.79
2024-05-09T04:46:03.560Z,15.43
2024-05-09T04:47:03.636Z,14.93
2024-05-09T04:48:04.022Z,14.35
2024-05-09T04:49:03.605Z,13.71
2024-05-09T04:50:03.665Z,13.02
2024-05-09T04:51:03.691Z,12.51
2024-05-09T04:52:03.512Z,12.11
2024-05-09T04:53:03.665Z,11.75
2024-05-09T04:54:03.607Z,11.54
2024-05-09T04:55:03.490Z,11.38
2024-05-09T04:56:03.513Z,11.24
2024-05-09T04:57:03.445Z,11.13
2024-05-09T04:58:03.445Z,11.03
2024-05-09T04:59:03.501Z,10.92
2024-05-09T05:00:07.229Z,10.78
2024-05-09T05:01:04.454Z,10.71
2024-05-09T05:02:03.568Z,10.52
2024-05-09T05:03:03.655Z,10.28
2024-05-09T05:04:03.478Z,10.10
2024-05-09T05:05:03.581Z,10.09
2024-05-09T05:06:03.503Z,10.09
2024-05-09T05:07:03.340Z,10.06
2024-05-09T05:08:03.401Z,9.99
2024-05-09T05:09:03.331Z,9.99
2024-05-09T05:10:05.688Z,10.06
2024-05-09T05:11:03.444Z,10.14
2024-05-09T05:12:03.327Z,10.21
2024-05-09T05:13:03.274Z,10.22
2024-05-09T05:14:03.306Z,10.18
2024-05-09T05:15:03.246Z,10.21
2024-05-09T05:16:03.253Z,10.24
2024-05-09T05:17:03.326Z,10.28
2024-05-09T05:18:03.383Z,10.32
2024-05-09T05:19:03.664Z,10.34
2024-05-09T05:20:03.584Z,10.39
2024-05-09T05:21:03.264Z,10.40
2024-05-09T05:22:03.160Z,10.36
2024-05-09T05:23:03.196Z,10.32
2024-05-09T05:24:03.167Z,10.28
2024-05-09T05:25:03.137Z,10.21
2024-05-09T05:26:03.219Z,10.19
2024-05-09T05:27:03.134Z,10.21
2024-05-09T05:28:03.093Z,10.26
2024-05-09T05:29:03.264Z,10.33
2024-05-09T05:30:04.610Z,10.33
2024-05-09T05:31:03.348Z,10.30
2024-05-09T05:32:03.154Z,10.26
2024-05-09T05:33:03.139Z,10.32
2024-05-09T05:34:03.079Z,10.34
2024-05-09T05:35:04.743Z,10.34
2024-05-09T05:36:03.018Z,10.34
2024-05-09T05:37:02.995Z,10.36
2024-05-09T05:38:03.078Z,10.42
2024-05-09T05:39:03.013Z,10.46
2024-05-09T05:40:03.283Z,10.51
2024-05-09T05:41:03.052Z,10.52
2024-05-09T05:42:02.955Z,10.47
2024-05-09T05:43:02.943Z,10.51
2024-05-09T05:44:02.969Z,10.51
2024-05-09T05:45:04.059Z,10.56
2024-05-09T05:46:02.905Z,10.63
2024-05-09T05:47:02.951Z,10.71
2024-05-09T05:48:03.123Z,10.78
2024-05-09T05:49:02.972Z,10.89
2024-05-09T05:50:03.820Z,10.99
2024-05-09T05:51:04.607Z,11.03
2024-05-09T05:52:02.838Z,11.01
2024-05-09T05:53:02.916Z,10.98
2024-05-09T05:54:02.843Z,10.99
2024-05-09T05:55:02.811Z,11.06
2024-05-09T05:56:02.870Z,11.13
2024-05-09T05:57:02.783Z,11.19
2024-05-09T05:58:02.886Z,11.27
2024-05-09T05:59:02.823Z,11.34
2024-05-09T06:00:04.147Z,11.39
2024-05-09T06:01:02.773Z,11.44
2024-05-09T06:02:02.824Z,11.52
2024-05-09T06:03:02.818Z,11.54
2024-05-09T06:04:02.807Z,11.59
2024-05-09T06:05:02.752Z,11.62
2024-05-09T06:06:02.947Z,11.68
2024-05-09T06:07:02.671Z,11.71
2024-05-09T06:08:02.759Z,11.75
2024-05-09T06:09:02.630Z,11.82
2024-05-09T06:10:03.896Z,11.77
2024-05-09T06:11:02.775Z,11.72
2024-05-09T06:12:02.724Z,11.71
2024-05-09T06:13:02.614Z,11.74
2024-05-09T06:14:02.648Z,11.70
2024-05-09T06:15:02.592Z,11.67
2024-05-09T06:16:02.588Z,11.70
2024-05-09T06:17:02.550Z,11.71
2024-05-09T06:18:02.823Z,11.72
2024-05-09T06:19:02.560Z,11.72
2024-05-09T06:20:02.568Z,11.71
2024-05-09T06:21:02.588Z,11.71
2024-05-09T06:22:02.483Z,11.75
2024-05-09T06:23:02.555Z,11.80
2024-05-09T06:24:05.340Z,11.83
2024-05-09T06:25:02.465Z,11.89
2024-05-09T06:26:02.534Z,11.96
2024-05-09T06:27:02.431Z,12.01
2024-05-09T06:28:02.450Z,12.02
2024-05-09T06:29:02.418Z,12.01
2024-05-09T06:30:02.400Z,12.05
2024-05-09T06:31:02.404Z,12.11
2024-05-09T06:32:02.531Z,12.20
2024-05-09T06:33:02.506Z,12.29
2024-05-09T06:34:02.526Z,12.38
2024-05-09T06:35:02.401Z,12.45
2024-05-09T06:36:02.326Z,12.54
2024-05-09T06:37:02.351Z,12.63
2024-05-09T06:38:02.598Z,12.69
2024-05-09T06:39:02.343Z,12.77
2024-05-09T06:40:02.363Z,12.75
2024-05-09T06:41:02.517Z,12.74
2024-05-09T06:42:02.343Z,12.78
2024-05-09T06:43:02.254Z,12.78
2024-05-09T06:44:02.325Z,12.74
2024-05-09T06:45:02.255Z,12.74
2024-05-09T06:46:02.247Z,12.75
2024-05-09T06:47:02.388Z,12.75
2024-05-09T06:48:02.503Z,12.81
2024-05-09T06:49:02.450Z,12.87
2024-05-09T06:50:02.340Z,12.95
2024-05-09T06:51:02.186Z,13.00
2024-05-09T06:52:02.199Z,13.04
2024-05-09T06:53:02.571Z,13.14
2024-05-09T06:54:02.182Z,13.15
2024-05-09T06:55:02.132Z,13.22
2024-05-09T06:56:02.174Z,13.27
2024-05-09T06:57:02.115Z,13.30
2024-05-09T06:58:02.108Z,13.32
2024-05-09T06:59:02.184Z,13.33
2024-05-09T07:00:02.086Z,13.37
2024-05-09T07:01:02.110Z,13.41
2024-05-09T07:02:02.122Z,13.46
2024-05-09T07:03:05.467Z,13.46
2024-05-09T07:04:02.171Z,13.51
2024-05-09T07:05:02.187Z,13.56
2024-05-09T07:06:02.211Z,13.61
2024-05-09T07:07:04.678Z,13.70
2024-05-09T07:08:02.015Z,13.74
2024-05-09T07:09:02.001Z,13.77
2024-05-09T07:10:03.854Z,13.83
2024-05-09T07:11:02.066Z,13.87
2024-05-09T07:12:02.114Z,13.88
2024-05-09T07:13:01.962Z,13.89
2024-05-09T07:14:02.050Z,13.95
2024-05-09T07:15:01.986Z,13.95
2024-05-09T07:16:01.903Z,13.98
2024-05-09T07:17:01.978Z,14.02
2024-05-09T07:18:02.165Z,14.09
2024-05-09T07:19:02.101Z,14.09
2024-05-09T07:20:01.954Z,14.10
2024-05-09T07:21:03.852Z,14.09
2024-05-09T07:22:03.784Z,14.12
2024-05-09T07:23:01.923Z,14.02
2024-05-09T07:24:01.797Z,14.01
2024-05-09T07:25:01.819Z,13.98
2024-05-09T07:26:01.823Z,13.96
2024-05-09T07:27:01.754Z,13.98
2024-05-09T07:28:01.761Z,13.96
2024-05-09T07:29:01.806Z,14.02
2024-05-09T07:30:01.737Z,14.07
2024-05-09T07:31:01.763Z,14.13
2024-05-09T07:32:01.794Z,14.14
2024-05-09T07:33:02.643Z,14.19
2024-05-09T07:34:01.868Z,14.28
2024-05-09T07:35:01.759Z,14.35
2024-05-09T07:36:01.722Z,14.43
2024-05-09T07:37:01.667Z,14.50
2024-05-09T07:38:01.722Z,14.54
2024-05-09T07:39:01.633Z,14.61
2024-05-09T07:40:01.641Z,14.64
2024-05-09T07:41:01.707Z,14.64
2024-05-09T07:42:01.648Z,14.65
2024-05-09T07:43:01.603Z,14.62
2024-05-09T07:44:01.663Z,14.65
2024-05-09T07:45:21.035Z,14.68
2024-05-09T07:46:51.849Z,14.75
2024-05-09T07:50:36.022Z,14.95
2024-05-09T07:51:54.736Z,15.03
2024-05-09T07:53:25.200Z,15.17
2024-05-09T07:53:36.125Z,15.23
2024-05-09T07:54:03.049Z,15.27
2024-05-09T07:55:01.701Z,15.33
2024-05-09T07:56:01.655Z,15.38
2024-05-09T07:57:01.651Z,15.39
2024-05-09T07:58:01.471Z,15.41
2024-05-09T07:59:01.425Z,15.49
2024-05-09T08:00:01.441Z,15.56
2024-05-09T08:01:01.537Z,15.64
2024-05-09T08:02:01.458Z,15.68
2024-05-09T08:03:01.443Z,15.68
2024-05-09T08:04:01.527Z,15.74
2024-05-09T08:05:01.761Z,15.75
2024-05-09T08:06:01.413Z,15.78
2024-05-09T08:07:01.396Z,15.86
2024-05-09T08:08:01.316Z,15.96
2024-05-09T08:09:05.452Z,16.03
2024-05-09T08:10:02.769Z,16.07
2024-05-09T08:11:01.278Z,16.12
2024-05-09T08:12:01.314Z,16.16
2024-05-09T08:13:02.966Z,16.25
2024-05-09T08:14:01.254Z,16.27
2024-05-09T08:15:01.224Z,16.34
2024-05-09T08:16:01.346Z,16.41
2024-05-09T08:17:01.307Z,16.45
2024-05-09T08:18:01.313Z,16.50
2024-05-09T08:19:01.320Z,16.50
2024-05-09T08:20:03.675Z,16.56
2024-05-09T08:21:01.190Z,16.56
2024-05-09T08:22:01.259Z,16.59
2024-05-09T08:23:01.133Z,16.67
2024-05-09T08:24:01.172Z,16.74
2024-05-09T08:25:01.204Z,16.78
2024-05-09T08:26:01.138Z,16.80
2024-05-09T08:27:01.118Z,16.86
2024-05-09T08:28:01.306Z,16.90
2024-05-09T08:29:01.082Z,16.96
2024-05-09T08:30:01.191Z,17.03
2024-05-09T08:31:05.007Z,17.06
2024-05-09T08:32:02.169Z,17.10
2024-05-09T08:33:01.152Z,17.15
2024-05-09T08:34:01.164Z,17.23
2024-05-09T08:35:01.064Z,17.26
2024-05-09T08:36:01.079Z,17.26
2024-05-09T08:37:03.872Z,17.22
2024-05-09T08:38:02.028Z,17.20
2024-05-09T08:39:00.975Z,17.23
2024-05-09T08:40:01.007Z,17.32
2024-05-09T08:41:00.942Z,17.35
2024-05-09T08:42:01.733Z,17.36
2024-05-09T08:43:01.046Z,17.43
2024-05-09T08:44:00.939Z,17.47
2024-05-09T08:45:00.916Z,17.48
2024-05-09T08:46:00.993Z,17.51
2024-05-09T08:47:01.016Z,17.57
2024-05-09T08:48:00.986Z,17.63
2024-05-09T08:49:01.063Z,17.70
2024-05-09T08:50:01.009Z,17.74
2024-05-09T08:51:00.812Z,17.78
2024-05-09T08:52:00.832Z,17.79
2024-05-09T08:53:00.811Z,17.82
2024-05-09T08:54:00.830Z,17.87
2024-05-09T08:55:00.866Z,17.92
2024-05-09T08:56:00.779Z,17.97
2024-05-09T08:57:00.753Z,18.03
2024-05-09T08:58:00.819Z,18.06
2024-05-09T08:59:00.744Z,18.06
2024-05-09T09:00:00.720Z,18.00
2024-05-09T09:01:00.871Z,17.92
2024-05-09T09:02:00.792Z,17.95
2024-05-09T09:03:00.774Z,18.02
2024-05-09T09:04:00.831Z,18.09
2024-05-09T09:05:00.818Z,18.12
2024-05-09T09:06:00.673Z,18.18
2024-05-09T09:07:02.305Z,18.19
2024-05-09T09:08:00.659Z,18.22
2024-05-09T09:09:00.646Z,18.27
2024-05-09T09:10:00.729Z,18.33
2024-05-09T09:11:00.615Z,18.36
2024-05-09T09:12:00.684Z,18.40
2024-05-09T09:13:00.738Z,18.43
2024-05-09T09:14:00.586Z,18.39
2024-05-09T09:15:00.606Z,18.37
2024-05-09T09:16:00.775Z,18.42
2024-05-09T09:17:00.532Z,18.36
2024-05-09T09:18:01.075Z,18.22
2024-05-09T09:19:00.662Z,18.21
2024-05-09T09:20:00.741Z,18.21
2024-05-09T09:21:00.523Z,18.27
2024-05-09T09:22:00.629Z,18.34
2024-05-09T09:23:00.486Z,18.40
2024-05-09T09:24:00.520Z,18.46
2024-05-09T09:25:00.511Z,18.50
2024-05-09T09:26:00.544Z,18.49
2024-05-09T09:27:00.445Z,18.55
2024-05-09T09:28:00.562Z,18.52
2024-05-09T09:29:00.439Z,18.47
2024-05-09T09:30:00.417Z,18.55
2024-05-09T09:31:00.493Z,18.58
2024-05-09T09:32:00.370Z,18.54
2024-05-09T09:33:00.537Z,18.50
2024-05-09T09:34:00.525Z,18.55
2024-05-09T09:35:00.561Z,18.50
2024-05-09T09:36:00.347Z,18.43
2024-05-09T09:37:00.318Z,18.40
2024-05-09T09:38:00.322Z,18.42
2024-05-09T09:39:00.312Z,18.43
2024-05-09T09:40:00.339Z,18.37
2024-05-09T09:41:00.403Z,18.46
2024-05-09T09:42:00.268Z,18.52
2024-05-09T09:43:00.313Z,18.40
2024-05-09T09:44:00.273Z,18.40
2024-05-09T09:45:04.951Z,18.47
2024-05-09T09:46:01.319Z,18.55
2024-05-09T09:47:00.207Z,18.55
2024-05-09T09:48:00.256Z,18.52
2024-05-09T09:49:00.306Z,18.50
2024-05-09T09:50:00.177Z,18.52
2024-05-09T09:51:00.166Z,18.54
2024-05-09T09:52:00.211Z,18.59
2024-05-09T09:53:00.136Z,18.62
2024-05-09T09:54:00.144Z,18.64
2024-05-09T09:55:00.192Z,18.50
2024-05-09T09:56:00.141Z,18.50
2024-05-09T09:57:00.097Z,18.42
2024-05-09T09:58:00.139Z,18.46
2024-05-09T09:59:00.113Z,18.55
2024-05-09T10:00:00.083Z,18.68
2024-05-09T10:01:00.151Z,18.72
2024-05-09T10:02:00.271Z,18.72
2024-05-09T10:03:00.127Z,18.76
2024-05-09T10:04:00.136Z,18.67
2024-05-09T10:05:00.094Z,18.73
2024-05-09T10:06:00.128Z,18.83
2024-05-09T10:07:00.043Z,18.91
2024-05-09T10:07:59.960Z,19.01
2024-05-09T10:08:59.981Z,19.06
2024-05-09T10:10:00.059Z,18.98
2024-05-09T10:11:00.011Z,18.98
2024-05-09T10:12:00.762Z,19.06
2024-05-09T10:13:00.234Z,19.10
2024-05-09T10:13:59.892Z,19.17
2024-05-09T10:14:59.956Z,19.25
2024-05-09T10:15:59.909Z,19.25
2024-05-09T10:16:59.944Z,19.25
2024-05-09T10:18:00.027Z,19.21
2024-05-09T10:18:59.906Z,19.15
2024-05-09T10:19:59.963Z,19.21
2024-05-09T10:20:59.939Z,19.20
2024-05-09T10:21:59.861Z,19.17
2024-05-09T10:22:59.802Z,19.24
2024-05-09T10:23:59.858Z,19.32
2024-05-09T10:25:01.404Z,19.40
2024-05-09T10:25:59.798Z,19.50
2024-05-09T10:26:59.792Z,19.58
2024-05-09T10:27:59.783Z,19.66
2024-05-09T10:28:59.710Z,19.61
2024-05-09T10:29:59.723Z,19.63
2024-05-09T10:30:59.802Z,19.68
2024-05-09T10:31:59.713Z,19.60
2024-05-09T10:32:59.738Z,19.57
2024-05-09T10:34:00.002Z,19.47
2024-05-09T10:34:59.717Z,19.46
2024-05-09T10:35:59.668Z,19.46
2024-05-09T10:37:00.882Z,19.46
2024-05-09T10:37:59.616Z,19.43
2024-05-09T10:38:59.630Z,19.53
2024-05-09T10:39:59.665Z,19.58
2024-05-09T10:41:01.597Z,19.55
2024-05-09T10:41:59.566Z,19.63
2024-05-09T10:43:00.558Z,19.75
2024-05-09T10:43:59.539Z,19.84
2024-05-09T10:44:59.542Z,19.88
2024-05-09T10:45:59.652Z,19.93
2024-05-09T10:47:01.535Z,19.79
2024-05-09T10:47:59.610Z,19.73
2024-05-09T10:49:01.678Z,19.76
2024-05-09T10:49:59.529Z,19.80
2024-05-09T10:50:59.484Z,19.87
2024-05-09T10:51:59.562Z,19.94
2024-05-09T10:52:59.469Z,20.06
2024-05-09T10:53:59.435Z,19.90
2024-05-09T10:55:00.958Z,19.93
2024-05-09T10:55:59.426Z,19.91
2024-05-09T10:56:59.434Z,20.00
2024-05-09T10:57:59.445Z,20.03
2024-05-09T10:58:59.385Z,20.08
2024-05-09T10:59:59.433Z,20.09
2024-05-09T11:01:00.714Z,20.03
2024-05-09T11:01:59.481Z,19.94
2024-05-09T11:02:59.366Z,19.75
2024-05-09T11:03:59.507Z,19.57
2024-05-09T11:04:59.480Z,19.51
2024-05-09T11:06:01.290Z,19.51
2024-05-09T11:07:00.987Z,19.61
2024-05-09T11:07:59.306Z,19.80
2024-05-09T11:08:59.321Z,19.86
2024-05-09T11:09:59.345Z,19.76
2024-05-09T11:10:59.280Z,19.76
2024-05-09T11:11:59.345Z,19.87
2024-05-09T11:12:59.338Z,19.83
2024-05-09T11:13:59.261Z,19.93
2024-05-09T11:14:59.198Z,20.12
2024-05-09T11:15:59.449Z,20.27
2024-05-09T11:16:59.190Z,20.33
2024-05-09T11:17:59.306Z,20.39
2024-05-09T11:18:59.692Z,20.43
2024-05-09T11:19:59.228Z,20.43
2024-05-09T11:20:59.152Z,20.03
2024-05-09T11:21:59.146Z,19.91
2024-05-09T11:22:59.182Z,19.97
2024-05-09T11:23:59.129Z,19.98
2024-05-09T11:24:59.132Z,20.06
2024-05-09T11:25:59.330Z,20.16
2024-05-09T11:26:59.101Z,20.30
2024-05-09T11:27:59.077Z,20.27
2024-05-09T11:28:59.087Z,20.18
2024-05-09T11:29:59.062Z,20.27
2024-05-09T11:30:59.083Z,20.35
2024-05-09T11:31:59.038Z,20.38
2024-05-09T11:32:59.212Z,20.49
2024-05-09T11:33:59.036Z,20.58
2024-05-09T11:34:58.986Z,20.68
2024-05-09T11:35:58.973Z,20.76
2024-05-09T11:36:59.016Z,20.77
2024-05-09T11:37:58.974Z,20.72
2024-05-09T11:38:58.945Z,20.71
2024-05-09T11:39:59.010Z,20.69
2024-05-09T11:40:58.973Z,20.76
2024-05-09T11:41:58.912Z,20.81
2024-05-09T11:42:58.961Z,20.81
2024-05-09T11:43:58.888Z,20.86
2024-05-09T11:44:58.876Z,20.84
2024-05-09T11:45:58.933Z,20.81
2024-05-09T11:46:58.842Z,20.66
2024-05-09T11:47:58.933Z,20.69
2024-05-09T11:48:59.061Z,20.79
2024-05-09T11:49:58.882Z,20.87
2024-05-09T11:50:58.808Z,20.96
2024-05-09T11:51:58.930Z,20.87
2024-05-09T11:52:58.791Z,20.74
2024-05-09T11:53:58.791Z,20.69
2024-05-09T11:54:58.935Z,20.74
2024-05-09T11:55:58.768Z,20.65
2024-05-09T11:56:58.738Z,20.76
2024-05-09T11:57:58.776Z,20.81
2024-05-09T11:58:58.730Z,20.90
2024-05-09T11:59:58.717Z,20.96
2024-05-09T12:00:58.813Z,20.91
2024-05-09T12:01:58.819Z,20.87
2024-05-09T12:02:58.683Z,20.95
2024-05-09T12:03:59.159Z,21.02
2024-05-09T12:04:58.758Z,21.09
2024-05-09T12:05:58.918Z,21.17
2024-05-09T12:06:58.657Z,21.17
2024-05-09T12:07:58.599Z,20.98
2024-05-09T12:08:58.640Z,20.90
2024-05-09T12:09:58.646Z,20.89
2024-05-09T12:10:58.825Z,20.93
2024-05-09T12:11:58.727Z,20.90
2024-05-09T12:12:58.650Z,20.91
2024-05-09T12:13:58.606Z,20.91
2024-05-09T12:14:58.559Z,20.76
2024-05-09T12:15:58.557Z,20.69
2024-05-09T12:16:58.559Z,20.72
2024-05-09T12:18:01.246Z,20.71
2024-05-09T12:18:58.611Z,20.72
2024-05-09T12:19:58.492Z,20.91
2024-05-09T12:20:58.453Z,20.93
2024-05-09T12:21:58.520Z,20.90
2024-05-09T12:22:58.472Z,20.91
2024-05-09T12:23:58.444Z,21.06
2024-05-09T12:24:58.509Z,21.21
2024-05-09T12:25:58.443Z,21.29
2024-05-09T12:26:58.766Z,21.29
2024-05-09T12:27:58.522Z,21.24
2024-05-09T12:28:58.404Z,21.14
2024-05-09T12:29:58.389Z,21.14
2024-05-09T12:30:58.464Z,21.14
2024-05-09T12:31:58.370Z,21.21
2024-05-09T12:32:58.399Z,21.29
2024-05-09T12:33:58.477Z,21.32
2024-05-09T12:34:58.353Z,21.38
2024-05-09T12:35:58.317Z,21.34
2024-05-09T12:36:58.352Z,21.30
2024-05-09T12:37:58.282Z,21.23
2024-05-09T12:38:58.309Z,21.20
2024-05-09T12:39:58.294Z,21.23
2024-05-09T12:40:58.492Z,21.29
2024-05-09T12:41:58.236Z,21.24
2024-05-09T12:42:58.250Z,21.08
2024-05-09T12:43:58.225Z,20.81
2024-05-09T12:44:58.262Z,20.65
2024-05-09T12:45:58.280Z,20.58
2024-05-09T12:46:58.196Z,20.46
2024-05-09T12:48:00.364Z,20.39
2024-05-09T12:48:58.622Z,20.35
2024-05-09T12:49:58.188Z,20.31
2024-05-09T12:50:58.251Z,20.28
2024-05-09T12:51:58.150Z,20.15
2024-05-09T12:52:58.168Z,20.05
2024-05-09T12:53:58.111Z,19.98
2024-05-09T12:54:58.168Z,19.95
2024-05-09T12:56:02.202Z,19.97
2024-05-09T12:56:59.099Z,19.98
2024-05-09T12:57:58.247Z,20.02
2024-05-09T12:58:58.048Z,20.03
2024-05-09T12:59:58.077Z,20.06
2024-05-09T13:00:58.234Z,20.09
2024-05-09T13:02:00.443Z,20.12
2024-05-09T13:02:58.175Z,20.31
2024-05-09T13:03:58.219Z,20.53
2024-05-09T13:04:58.085Z,20.72
2024-05-09T13:05:58.076Z,20.90
2024-05-09T13:06:58.028Z,21.06